Time;durP1;ratioP1;P1;durP2;ratioP2;P2;SDS_P1;SDS_P2;PMS_P1;PMS_P2;Temp;Humidity;BMP_temperature;BMP_pressure;BME280_temperature;BME280_humidity;BME280_pressure;Samples;Min_cycle;Max_cycle;Signal;HPM_P1;HPM_P2
2021/01/27 00:02:57;;;;;;;41.50;24.92;;;;;;;0.06;79.86;99259.94;3738852;78;30331;-75
2021/01/27 00:08:00;;;;;;;40.63;24.80;;;;;;;0.06;80.30;99263.06;3741460;76;25942;-70
2021/01/27 00:13:05;;;;;;;43.65;24.27;;;;;;;0.05;80.29;99260.94;3733841;78;29984;-73
2021/01/27 00:18:13;;;;;;;28.67;17.15;;;;;;;0.13;80.14;99261.36;3752618;77;30220;-71
2021/01/27 00:23:16;;;;;;;33.08;19.75;;;;;;;0.13;80.22;99261.36;3739588;77;25903;-70
2021/01/27 00:28:19;;;;;;;35.70;22.90;;;;;;;0.10;80.62;99257.28;3747658;77;28476;-69
2021/01/27 00:33:23;;;;;;;37.78;22.30;;;;;;;0.10;80.23;99249.92;3746656;77;30054;-66
2021/01/27 00:38:28;;;;;;;35.03;20.37;;;;;;;0.15;80.17;99250.20;3746747;76;28396;-66
2021/01/27 00:43:33;;;;;;;40.35;21.33;;;;;;;0.09;80.48;99249.11;3741723;77;30217;-66
2021/01/27 00:48:37;;;;;;;38.00;20.27;;;;;;;0.17;79.95;99254.27;3749711;76;28283;-70
2021/01/27 00:53:42;;;;;;;27.48;16.48;;;;;;;0.14;80.05;99255.94;3757718;76;30582;-69
2021/01/27 00:58:44;;;;;;;32.85;19.98;;;;;;;0.10;80.52;99250.73;3740585;77;29308;-68
2021/01/27 01:03:46;;;;;;;30.40;18.15;;;;;;;0.16;80.43;99253.95;3729832;77;29299;-71
2021/01/27 01:08:49;;;;;;;33.10;19.52;;;;;;;0.13;80.14;99254.31;3750604;77;30022;-66
2021/01/27 01:13:52;;;;;;;33.88;17.50;;;;;;;0.15;79.95;99256.25;3746432;76;28006;-68
2021/01/27 01:18:55;;;;;;;33.48;19.32;;;;;;;0.19;80.56;99255.41;3721898;77;30445;-68
2021/01/27 01:23:59;;;;;;;27.95;17.65;;;;;;;0.23;80.06;99256.18;3724900;77;30539;-71
2021/01/27 01:29:03;;;;;;;25.12;16.45;;;;;;;0.24;79.88;99248.63;3725636;78;30279;-77
2021/01/27 01:34:06;;;;;;;25.27;14.93;;;;;;;0.20;79.63;99255.22;3728384;77;29165;-70
2021/01/27 01:39:10;;;;;;;31.35;20.30;;;;;;;0.17;79.83;99256.89;3723692;77;30488;-70
2021/01/27 01:44:14;;;;;;;23.70;15.43;;;;;;;0.22;79.58;99256.36;3720882;76;31248;-69
2021/01/27 01:49:17;;;;;;;7.15;5.42;;;;;;;0.25;79.65;99262.06;3731271;77;31169;-71
2021/01/27 01:54:32;;;;;;;27.42;15.10;;;;;;;0.17;79.34;99260.01;3722243;76;28416;-79
2021/01/27 01:59:38;;;;;;;19.42;14.10;;;;;;;0.29;78.82;99258.58;3738880;77;29303;-69
2021/01/27 02:04:49;;;;;;;23.70;18.23;;;;;;;0.24;78.94;99255.69;3730585;78;30178;-76
2021/01/27 02:09:53;;;;;;;15.10;10.18;;;;;;;0.25;78.95;99260.75;3726391;76;30040;-74
2021/01/27 02:15:42;;;;;;;7.72;4.53;;;;;;;0.23;78.53;99261.42;3722250;77;28404;-68
2021/01/27 02:21:28;;;;;;;23.75;14.60;;;;;;;0.19;79.18;99262.77;3722619;78;29907;-65
2021/01/27 02:26:50;;;;;;;24.02;18.10;;;;;;;0.27;78.21;99255.33;3725901;77;30101;-68
2021/01/27 02:32:25;;;;;;;22.73;12.07;;;;;;;0.34;77.99;99258.33;3581439;80;34783;-66
2021/01/27 02:38:00;;;;;;;21.42;11.57;;;;;;;0.28;78.04;99264.33;3558310;81;28316;-65
2021/01/27 02:43:14;;;;;;;20.02;12.55;;;;;;;0.21;78.27;99256.85;3574010;80;30287;-70
2021/01/27 02:48:28;;;;;;;19.27;11.57;;;;;;;0.21;78.54;99256.04;3547129;81;30195;-67
2021/01/27 02:53:40;;;;;;;20.57;12.53;;;;;;;0.17;78.37;99256.89;3571870;81;29729;-66
2021/01/27 02:58:51;;;;;;;18.27;10.38;;;;;;;0.21;77.44;99261.28;3575344;81;30844;-77
2021/01/27 03:04:21;;;;;;;19.70;12.43;;;;;;;0.27;76.79;99263.19;3535526;81;35214;-71
2021/01/27 03:09:38;;;;;;;20.02;12.88;;;;;;;0.24;76.48;99273.53;3541735;80;31133;-68
2021/01/27 03:14:49;;;;;;;10.70;7.87;;;;;;;0.32;76.23;99277.86;3504517;81;34816;-71
2021/01/27 03:20:03;;;;;;;16.10;10.32;;;;;;;0.18;76.25;99282.11;3459854;85;28594;-70
2021/01/27 03:25:15;;;;;;;31.97;19.57;;;;;;;0.17;75.79;99280.48;3461786;83;30576;-67
2021/01/27 03:30:18;;;;;;;12.28;8.38;;;;;;;0.20;76.02;99284.06;3454029;83;30277;-69
2021/01/27 03:35:58;;;;;;;13.43;9.40;;;;;;;0.16;75.37;99283.28;3419859;84;36381;-68
2021/01/27 03:41:21;;;;;;;17.67;10.58;;;;;;;0.15;75.50;99286.89;3410498;84;29349;-66
2021/01/27 03:46:34;;;;;;;24.20;11.68;;;;;;;0.17;75.38;99285.72;3431040;84;30165;-68
2021/01/27 03:51:43;;;;;;;11.45;6.80;;;;;;;0.16;75.47;99289.34;3424632;84;29268;-68
2021/01/27 03:56:53;;;;;;;18.00;12.78;;;;;;;0.11;76.14;99292.16;3431553;84;28671;-68
2021/01/27 04:01:58;;;;;;;14.10;7.87;;;;;;;0.13;75.82;99284.45;3417701;84;28561;-69
2021/01/27 04:07:01;;;;;;;19.82;8.75;;;;;;;0.15;75.50;99292.95;3428299;84;30717;-68
2021/01/27 04:12:05;;;;;;;12.13;8.88;;;;;;;0.16;75.08;99302.94;3418598;84;30437;-68
2021/01/27 04:17:19;;;;;;;7.65;6.05;;;;;;;0.16;74.45;99295.07;3407975;85;30191;-68
2021/01/27 04:22:30;;;;;;;20.55;16.82;;;;;;;0.20;73.19;99293.73;3613978;78;28231;-69
2021/01/27 04:27:33;;;;;;;15.80;9.20;;;;;;;0.70;71.85;99296.94;3511423;80;30633;-68
2021/01/27 04:32:37;;;;;;;13.62;9.40;;;;;;;0.44;72.67;99305.77;3527255;83;29444;-69
2021/01/27 04:37:40;;;;;;;5.30;3.83;;;;;;;0.37;72.32;99306.97;3499772;84;30369;-69
2021/01/27 04:42:43;;;;;;;10.63;8.53;;;;;;;0.26;72.51;99310.88;3533571;83;28244;-69
2021/01/27 04:47:55;;;;;;;13.55;7.55;;;;;;;0.26;73.36;99316.61;3534411;83;30384;-69
2021/01/27 04:53:36;;;;;;;9.95;7.42;;;;;;;0.22;73.38;99311.40;3537002;82;31100;-69
2021/01/27 04:58:53;;;;;;;14.73;6.70;;;;;;;0.17;72.39;99318.48;3596354;82;30177;-69
2021/01/27 05:04:37;;;;;;;5.03;3.83;;;;;;;0.09;72.51;99316.42;3595861;82;30161;-69
2021/01/27 05:10:00;;;;;;;10.82;7.17;;;;;;;0.01;72.52;99314.69;3595841;82;28381;-69
2021/01/27 05:15:05;;;;;;;9.23;4.87;;;;;;;-0.06;72.82;99325.08;3577463;81;30646;-67
2021/01/27 05:20:11;;;;;;;6.83;4.55;;;;;;;-0.11;73.30;99307.76;3583986;81;29651;-68
2021/01/27 05:25:41;;;;;;;7.83;7.00;;;;;;;-0.11;73.19;99310.88;3617114;81;28306;-67
2021/01/27 05:30:56;;;;;;;12.85;7.62;;;;;;;-0.11;72.65;99316.11;3610343;81;27338;-68
2021/01/27 05:36:08;;;;;;;8.28;5.35;;;;;;;-0.08;72.68;99321.00;3612140;81;30157;-68
2021/01/27 05:41:27;;;;;;;8.68;5.80;;;;;;;-0.08;72.67;99319.70;3616926;81;30111;-67
2021/01/27 05:46:33;;;;;;;5.65;4.72;;;;;;;-0.12;73.20;99321.03;3616580;81;30189;-66
2021/01/27 05:51:38;;;;;;;7.33;5.53;;;;;;;-0.14;73.04;99325.14;3616423;81;27172;-66
2021/01/27 05:56:43;;;;;;;9.33;5.43;;;;;;;-0.12;72.96;99327.58;3615665;81;26472;-67
2021/01/27 06:01:49;;;;;;;9.68;6.78;;;;;;;-0.16;73.41;99324.99;3609120;81;28416;-66
2021/01/27 06:07:04;;;;;;;8.87;6.10;;;;;;;-0.11;73.31;99325.28;3591984;81;26599;-67
2021/01/27 06:12:15;;;;;;;5.40;3.80;;;;;;;-0.07;73.31;99337.05;3612759;81;27550;-67
2021/01/27 06:17:31;;;;;;;9.80;5.90;;;;;;;-0.17;72.82;99340.39;3589160;81;25996;-66
2021/01/27 06:23:05;;;;;;;9.73;6.23;;;;;;;-0.15;72.94;99339.72;3560779;81;26590;-67
2021/01/27 06:28:22;;;;;;;11.23;8.20;;;;;;;-0.12;73.02;99344.61;3620060;81;26048;-66
2021/01/27 06:33:48;;;;;;;9.33;6.92;;;;;;;-0.14;72.44;99337.42;3591989;81;28777;-67
2021/01/27 06:39:17;;;;;;;10.03;7.20;;;;;;;-0.10;73.02;99342.63;3602855;81;30329;-66
2021/01/27 06:44:43;;;;;;;12.88;7.97;;;;;;;-0.09;73.42;99339.02;3593211;81;28449;-64
2021/01/27 06:50:24;;;;;;;11.67;7.83;;;;;;;-0.11;72.63;99343.63;3611731;81;26289;-67
2021/01/27 06:55:50;;;;;;;10.98;6.25;;;;;;;-0.07;73.19;99351.45;3623996;81;26573;-66
2021/01/27 07:01:08;;;;;;;13.18;8.38;;;;;;;-0.09;72.78;99352.13;3627399;81;30164;-66
2021/01/27 07:06:54;;;;;;;12.63;8.03;;;;;;;-0.05;73.22;99351.60;3597912;81;26416;-67
2021/01/27 07:12:20;;;;;;;14.90;8.50;;;;;;;-0.03;72.65;99356.67;3567473;81;30851;-68
2021/01/27 07:17:47;;;;;;;11.80;9.03;;;;;;;-0.01;73.52;99369.10;3600696;81;27371;-68
2021/01/27 07:23:22;;;;;;;10.78;7.33;;;;;;;-0.01;72.41;99369.10;3640408;81;30259;-66
2021/01/27 07:28:55;;;;;;;8.10;4.53;;;;;;;-0.04;73.58;99367.64;3638289;81;26908;-64
2021/01/27 07:34:20;;;;;;;8.98;7.65;;;;;;;-0.06;72.96;99370.93;3641274;81;30738;-65
2021/01/27 07:39:52;;;;;;;13.45;8.50;;;;;;;-0.02;73.31;99375.33;3638497;81;30041;-65
2021/01/27 07:44:59;;;;;;;11.57;8.80;;;;;;;0.04;72.92;99370.67;3638478;81;26678;-65
2021/01/27 07:50:02;;;;;;;9.57;6.47;;;;;;;0.04;72.90;99373.30;3643803;81;25835;-66
2021/01/27 07:55:10;;;;;;;8.28;7.28;;;;;;;-0.02;72.91;99380.57;3638442;81;29932;-66
2021/01/27 08:00:24;;;;;;;10.50;8.20;;;;;;;0.05;73.29;99378.85;3614526;81;30211;-67
2021/01/27 08:05:30;;;;;;;14.15;7.75;;;;;;;0.08;73.44;99383.75;3633664;81;30547;-66
2021/01/27 08:10:35;;;;;;;;;;;;;;;0.06;73.30;99385.73;3645902;81;25920;-69
2021/01/27 08:15:44;;;;;;;11.10;8.43;;;;;;;0.08;72.75;99391.61;3618556;81;26430;-63
2021/01/27 08:20:49;;;;;;;12.80;8.68;;;;;;;0.14;73.00;99394.03;3612499;81;26203;-66
2021/01/27 08:25:55;;;;;;;10.68;7.75;;;;;;;0.15;73.19;99400.41;3606374;81;26336;-66
2021/01/27 08:31:18;;;;;;;13.48;8.30;;;;;;;0.19;72.64;99404.31;3625461;81;29597;-64
2021/01/27 08:36:37;;;;;;;12.15;7.42;;;;;;;0.22;72.24;99406.58;3608277;81;29657;-65
2021/01/27 08:42:04;;;;;;;10.50;8.15;;;;;;;0.27;72.15;99404.25;3610878;81;30231;-63
2021/01/27 08:47:38;;;;;;;11.88;8.70;;;;;;;0.34;72.24;99410.39;3636001;81;30286;-63
2021/01/27 08:52:43;;;;;;;12.95;7.92;;;;;;;0.40;71.86;99414.62;3642160;81;27891;-65
2021/01/27 08:57:51;;;;;;;8.23;5.28;;;;;;;0.45;71.39;99412.28;3642356;81;30149;-64
2021/01/27 09:03:00;;;;;;;6.47;5.60;;;;;;;0.45;71.00;99417.53;3635951;81;28615;-65
2021/01/27 09:08:21;;;;;;;7.58;6.00;;;;;;;0.55;70.21;99416.79;3637786;81;28446;-65
2021/01/27 09:13:33;;;;;;;6.30;5.28;;;;;;;0.54;70.92;99423.84;3609806;81;30280;-66
2021/01/27 09:18:39;;;;;;;9.08;5.80;;;;;;;0.49;71.07;99413.56;3611921;81;29135;-64
2021/01/27 09:23:44;;;;;;;9.25;5.12;;;;;;;0.50;70.53;99418.63;3622284;81;26806;-66
2021/01/27 09:28:49;;;;;;;12.50;6.97;;;;;;;0.51;70.06;99420.76;3626076;81;29306;-67
2021/01/27 09:33:51;;;;;;;12.07;6.62;;;;;;;0.61;70.29;99417.39;3626748;81;30111;-68
2021/01/27 09:38:58;;;;;;;9.68;6.20;;;;;;;0.70;69.15;99418.92;3626315;81;30149;-63
2021/01/27 09:44:04;;;;;;;11.43;6.93;;;;;;;0.75;69.55;99416.58;3597115;81;25827;-65
2021/01/27 09:49:10;;;;;;;9.43;8.50;;;;;;;0.89;69.39;99414.98;3592629;81;30375;-66
2021/01/27 09:54:14;;;;;;;;;;;;;;;0.93;68.63;99419.66;3591641;81;25811;-66
2021/01/27 09:59:19;;;;;;;8.00;7.03;;;;;;;1.00;67.69;99427.64;3602049;81;30659;-68
2021/01/27 10:04:37;;;;;;;8.30;6.53;;;;;;;1.11;67.46;99418.01;3616374;81;25969;-68
2021/01/27 10:09:50;;;;;;;13.90;8.40;;;;;;;1.21;68.17;99413.30;3601092;80;26651;-70
2021/01/27 10:15:30;;;;;;;9.97;8.07;;;;;;;1.25;66.37;99417.67;3622098;80;25919;-67
2021/01/27 10:20:37;;;;;;;7.15;5.65;;;;;;;1.29;66.10;99421.56;3616708;80;29799;-69
2021/01/27 10:25:47;;;;;;;11.30;9.40;;;;;;;1.31;66.49;99420.88;3609096;81;25994;-64
2021/01/27 10:30:57;;;;;;;7.10;6.42;;;;;;;1.36;66.17;99426.41;3598403;81;28352;-66
2021/01/27 10:36:03;;;;;;;8.10;6.35;;;;;;;1.40;65.52;99421.61;3610996;80;26083;-64
2021/01/27 10:41:10;;;;;;;8.30;7.22;;;;;;;1.52;65.51;99420.15;3611005;81;30369;-65
2021/01/27 10:46:34;;;;;;;8.77;5.27;;;;;;;1.63;64.67;99417.84;3602678;81;26550;-65
2021/01/27 10:51:36;;;;;;;7.28;6.08;;;;;;;1.63;64.51;99410.46;3602138;81;28011;-67
2021/01/27 10:56:38;;;;;;;7.60;4.97;;;;;;;1.69;64.39;99419.73;3602746;81;28191;-68
2021/01/27 11:01:40;;;;;;;9.13;7.25;;;;;;;1.73;63.76;99410.98;3586502;81;28372;-67
2021/01/27 11:06:44;;;;;;;5.83;3.90;;;;;;;1.78;64.51;99411.25;3607370;81;29309;-67
2021/01/27 11:11:46;;;;;;;3.10;1.98;;;;;;;1.91;62.90;99407.92;3596810;81;28455;-68
2021/01/27 11:16:48;;;;;;;3.62;2.17;;;;;;;1.82;62.14;99407.25;3609188;81;28299;-67
2021/01/27 11:21:51;;;;;;;5.75;4.97;;;;;;;1.80;60.55;99406.63;3610767;81;28538;-65
2021/01/27 11:26:52;;;;;;;10.95;5.55;;;;;;;1.93;61.65;99411.18;3608383;81;31113;-66
2021/01/27 11:31:55;;;;;;;6.15;4.60;;;;;;;1.90;60.06;99404.98;3608224;80;27454;-66
2021/01/27 11:36:57;;;;;;;4.83;3.42;;;;;;;1.89;59.36;99415.18;3591038;81;30098;-65
2021/01/27 11:42:00;;;;;;;4.90;4.50;;;;;;;1.88;60.58;99418.81;3611610;81;30062;-67
2021/01/27 11:47:02;;;;;;;10.13;5.10;;;;;;;1.75;60.38;99409.48;3583451;81;30834;-66
2021/01/27 11:52:06;;;;;;;6.10;4.08;;;;;;;1.73;61.51;99412.80;3581966;81;28469;-66
2021/01/27 11:57:09;;;;;;;5.22;3.35;;;;;;;1.69;61.18;99406.59;3601357;81;30114;-66
2021/01/27 12:02:12;;;;;;;4.05;2.65;;;;;;;1.67;61.42;99403.34;3595746;81;30241;-63
2021/01/27 12:07:14;;;;;;;7.08;4.72;;;;;;;1.69;60.37;99400.53;3603525;81;29008;-63
2021/01/27 12:12:17;;;;;;;10.30;6.67;;;;;;;1.73;59.54;99404.92;3602603;81;30687;-67
2021/01/27 12:17:20;;;;;;;5.53;4.40;;;;;;;1.73;60.54;99410.17;3605868;81;29818;-68
2021/01/27 12:22:22;;;;;;;7.28;4.87;;;;;;;1.69;61.50;99409.23;3610004;80;28779;-66
2021/01/27 12:27:24;;;;;;;8.20;4.47;;;;;;;1.70;61.26;99404.78;3632021;80;29852;-67
2021/01/27 12:32:26;;;;;;;9.38;7.17;;;;;;;1.64;62.17;99410.27;3632318;80;28472;-66
2021/01/27 12:37:29;;;;;;;11.30;7.05;;;;;;;1.65;62.74;99415.03;3639446;80;26470;-67
2021/01/27 12:42:32;;;;;;;14.47;8.73;;;;;;;1.65;61.78;99409.77;3631749;80;30245;-66
2021/01/27 12:47:35;;;;;;;7.75;6.37;;;;;;;1.68;63.34;99410.72;3639780;80;26987;-70
2021/01/27 12:52:38;;;;;;;7.92;5.17;;;;;;;1.67;63.23;99409.91;3634508;80;28493;-70
2021/01/27 12:57:43;;;;;;;7.53;5.67;;;;;;;1.60;62.55;99416.89;3637792;80;29002;-68
2021/01/27 13:02:48;;;;;;;10.53;4.03;;;;;;;1.52;63.08;99420.15;3640087;80;30058;-68
2021/01/27 13:07:50;;;;;;;9.00;6.10;;;;;;;1.55;62.67;99427.13;3642310;80;28241;-68
2021/01/27 13:12:52;;;;;;;8.37;6.17;;;;;;;1.62;64.83;99434.60;3636500;80;25952;-68
2021/01/27 13:17:54;;;;;;;7.70;6.13;;;;;;;1.77;62.22;99426.70;3638697;80;26579;-68
2021/01/27 13:22:56;;;;;;;11.40;5.17;;;;;;;1.93;61.21;99432.21;3630772;80;26695;-67
2021/01/27 13:28:05;;;;;;;8.90;5.58;;;;;;;2.03;61.77;99437.98;3636314;80;28285;-68
2021/01/27 13:33:12;;;;;;;10.57;5.00;;;;;;;2.11;62.79;99433.12;3631366;80;26028;-68
2021/01/27 13:38:15;;;;;;;16.73;7.83;;;;;;;2.10;61.72;99433.62;3640309;80;25916;-69
2021/01/27 13:43:18;;;;;;;16.85;7.90;;;;;;;2.11;62.67;99436.56;3614483;81;28331;-72
2021/01/27 13:48:22;;;;;;;12.18;6.10;;;;;;;2.12;62.55;99435.56;3623116;81;30192;-67
2021/01/27 13:53:25;;;;;;;12.35;6.80;;;;;;;2.08;63.15;99430.36;3620150;81;30140;-65
2021/01/27 13:58:28;;;;;;;7.60;6.47;;;;;;;2.05;63.39;99429.42;3618602;81;26483;-69
2021/01/27 14:03:31;;;;;;;14.07;6.30;;;;;;;1.97;63.97;99434.78;3625022;80;29106;-69
2021/01/27 14:08:35;;;;;;;15.60;9.75;;;;;;;1.95;63.92;99428.89;3676551;79;30598;-69
2021/01/27 14:13:37;;;;;;;11.48;7.97;;;;;;;1.94;65.61;99425.95;3671607;79;27718;-67
2021/01/27 14:18:40;;;;;;;13.07;6.83;;;;;;;1.85;65.10;99428.38;3675832;79;26337;-68
2021/01/27 14:23:44;;;;;;;12.82;5.45;;;;;;;1.87;66.10;99428.50;3662936;79;29265;-68
2021/01/27 14:28:47;;;;;;;13.50;7.75;;;;;;;1.72;66.66;99433.50;3623109;81;25841;-69
2021/01/27 14:33:50;;;;;;;13.93;8.18;;;;;;;1.71;66.78;99438.44;3629178;81;26353;-70
2021/01/27 14:38:54;;;;;;;11.97;9.47;;;;;;;1.68;66.83;99438.31;3615775;81;26332;-67
2021/01/27 14:43:59;;;;;;;13.60;7.93;;;;;;;1.62;67.73;99444.30;3601596;81;26047;-70
2021/01/27 14:49:04;;;;;;;15.20;8.00;;;;;;;1.58;68.61;99440.41;3613097;80;26667;-65
2021/01/27 14:54:08;;;;;;;13.25;9.00;;;;;;;1.56;68.83;99437.96;3600914;81;28256;-62
2021/01/27 14:59:12;;;;;;;11.60;8.50;;;;;;;1.58;69.16;99442.53;3606867;81;26053;-68
2021/01/27 15:04:16;;;;;;;12.63;11.27;;;;;;;1.57;69.41;99442.22;3602234;81;25805;-61
2021/01/27 15:09:21;;;;;;;10.63;8.43;;;;;;;1.57;68.95;99454.53;3679683;79;26453;-63
2021/01/27 15:14:25;;;;;;;13.37;8.37;;;;;;;1.57;69.14;99459.79;3618594;81;26406;-66
2021/01/27 15:19:27;;;;;;;15.53;9.10;;;;;;;1.56;69.45;99466.05;3586210;79;28742;-63
2021/01/27 15:24:30;;;;;;;17.13;9.17;;;;;;;1.50;69.50;99460.23;3579309;81;25950;-64
2021/01/27 15:29:33;;;;;;;10.18;7.47;;;;;;;1.44;69.84;99453.89;3557366;80;28744;-68
2021/01/27 15:34:37;;;;;;;15.63;9.50;;;;;;;1.45;70.32;99456.02;3611544;81;25921;-66
2021/01/27 15:39:40;;;;;;;23.50;12.23;;;;;;;1.46;70.68;99449.27;3625123;80;30941;-64
2021/01/27 15:44:49;;;;;;;68.02;34.43;;;;;;;1.42;71.52;99448.50;3559206;82;25899;-67
2021/01/27 15:50:07;;;;;;;36.80;19.53;;;;;;;1.40;71.57;99438.67;3552918;81;35043;-64
2021/01/27 15:55:14;;;;;;;40.60;19.98;;;;;;;1.28;71.38;99443.06;3500788;83;27276;-64
2021/01/27 16:00:18;;;;;;;26.20;15.83;;;;;;;1.26;71.90;99456.06;3523975;80;30677;-62
2021/01/27 16:05:26;;;;;;;24.30;15.85;;;;;;;1.26;72.39;99457.38;3491896;81;30201;-66
2021/01/27 16:10:33;;;;;;;20.77;12.68;;;;;;;1.23;71.68;99457.23;3403321;83;30918;-66
2021/01/27 16:15:39;;;;;;;14.07;11.38;;;;;;;1.21;72.33;99455.31;3434460;82;30258;-65
2021/01/27 16:20:45;;;;;;;17.52;12.98;;;;;;;1.22;72.69;99465.32;3498867;81;26518;-63
2021/01/27 16:25:49;;;;;;;26.65;16.15;;;;;;;1.19;72.57;99472.24;3495731;80;26417;-66
2021/01/27 16:31:00;;;;;;;21.70;12.47;;;;;;;1.17;72.51;99468.48;3556522;81;29247;-67
2021/01/27 16:36:05;;;;;;;17.60;11.00;;;;;;;1.18;73.67;99467.98;3556155;81;29994;-65
2021/01/27 16:41:08;;;;;;;24.92;12.78;;;;;;;1.16;72.87;99468.66;3598726;80;30212;-63
2021/01/27 16:46:15;;;;;;;27.62;12.80;;;;;;;1.20;73.73;99469.44;3622453;80;30075;-66
2021/01/27 16:51:20;;;;;;;17.45;11.68;;;;;;;1.17;73.55;99470.30;3619511;80;30055;-68
2021/01/27 16:56:24;;;;;;;19.10;11.93;;;;;;;1.10;73.90;99463.62;3591920;80;26500;-68
2021/01/27 17:01:30;;;;;;;18.85;12.10;;;;;;;1.17;72.56;99468.48;3567154;81;30123;-67
2021/01/27 17:06:34;;;;;;;34.75;21.73;;;;;;;1.13;70.62;99475.58;3585120;80;30621;-65
2021/01/27 17:11:40;;;;;;;45.70;27.95;;;;;;;1.10;71.25;99474.13;3573839;80;28879;-64
2021/01/27 17:16:53;;;;;;;28.17;14.47;;;;;;;1.12;72.14;99459.52;3571745;79;34689;-63
2021/01/27 17:21:59;;;;;;;18.02;8.03;;;;;;;1.02;70.54;99461.08;3511409;80;30161;-63
2021/01/27 17:27:03;;;;;;;15.68;7.50;;;;;;;1.00;70.10;99456.51;3477113;83;31077;-66
2021/01/27 17:32:08;;;;;;;13.45;7.05;;;;;;;0.98;69.45;99455.88;3491202;82;30746;-64
2021/01/27 17:37:12;;;;;;;15.43;7.40;;;;;;;0.97;69.54;99450.30;3501050;82;30032;-64
2021/01/27 17:42:27;;;;;;;16.55;7.40;;;;;;;1.01;68.62;99452.89;3535098;82;30147;-62
2021/01/27 17:47:29;;;;;;;15.63;7.03;;;;;;;1.06;68.04;99455.80;3539983;82;30177;-63
2021/01/27 17:52:33;;;;;;;12.68;6.35;;;;;;;1.08;68.17;99455.61;3531189;82;30141;-64
2021/01/27 17:57:35;;;;;;;16.73;6.80;;;;;;;1.06;68.25;99452.35;3532534;82;29034;-64
2021/01/27 18:02:39;;;;;;;10.85;7.03;;;;;;;1.03;68.57;99451.40;3523605;82;30444;-64
2021/01/27 18:07:41;;;;;;;12.58;6.92;;;;;;;1.00;69.51;99452.08;3535286;82;30157;-66
2021/01/27 18:12:44;;;;;;;13.33;6.37;;;;;;;1.00;68.89;99446.83;3530360;82;26230;-62
2021/01/27 18:17:47;;;;;;;14.87;7.53;;;;;;;0.99;69.43;99447.81;3580782;81;26236;-65
2021/01/27 18:22:51;;;;;;;8.80;5.25;;;;;;;0.93;68.77;99441.97;3580028;81;29800;-64
2021/01/27 18:27:55;;;;;;;12.47;8.10;;;;;;;0.91;68.59;99447.92;3575865;81;28794;-62
2021/01/27 18:32:59;;;;;;;17.83;8.63;;;;;;;0.90;69.21;99452.86;3579393;80;25956;-62
2021/01/27 18:38:03;;;;;;;14.03;8.83;;;;;;;0.85;69.33;99447.33;3577521;81;26899;-63
2021/01/27 18:43:11;;;;;;;9.43;6.15;;;;;;;0.85;68.57;99453.88;3588561;81;28366;-62
2021/01/27 18:48:17;;;;;;;15.08;7.35;;;;;;;0.82;68.95;99454.23;3584276;81;28766;-63
2021/01/27 18:53:24;;;;;;;12.37;7.33;;;;;;;0.84;69.34;99447.50;3568817;81;29647;-63
2021/01/27 18:58:32;;;;;;;19.93;9.43;;;;;;;0.83;68.89;99446.69;3588230;81;27192;-62
2021/01/27 19:03:37;;;;;;;15.05;8.95;;;;;;;0.77;69.57;99452.64;3587569;81;30667;-65
2021/01/27 19:08:41;;;;;;;17.62;6.75;;;;;;;0.78;69.59;99454.27;3550723;81;26540;-60
2021/01/27 19:13:43;;;;;;;13.38;5.83;;;;;;;0.81;69.34;99449.17;3558763;80;28806;-61
2021/01/27 19:18:52;;;;;;;15.00;8.33;;;;;;;0.72;69.64;99453.67;3615572;80;26383;-63
2021/01/27 19:23:56;;;;;;;14.20;8.40;;;;;;;0.75;69.39;99449.88;3596359;80;26188;-64
2021/01/27 19:29:01;;;;;;;14.00;7.78;;;;;;;0.70;69.51;99452.22;3615907;80;31070;-63
2021/01/27 19:34:07;;;;;;;17.65;9.20;;;;;;;0.67;69.97;99448.13;3614805;80;28542;-65
2021/01/27 19:39:10;;;;;;;15.65;9.60;;;;;;;0.70;69.71;99449.09;3617862;80;30593;-64
2021/01/27 19:44:14;;;;;;;13.00;6.90;;;;;;;0.66;70.16;99446.01;3611330;78;29881;-66
2021/01/27 19:49:18;;;;;;;14.75;8.45;;;;;;;0.68;70.12;99447.14;3615354;80;30090;-65
2021/01/27 19:54:24;;;;;;;14.20;8.13;;;;;;;0.69;69.55;99443.53;3614684;80;30419;-65
2021/01/27 19:59:28;;;;;;;15.65;7.40;;;;;;;0.70;68.88;99445.16;3612603;80;30149;-65
2021/01/27 20:04:31;;;;;;;22.13;12.00;;;;;;;0.68;69.03;99447.95;3622138;80;29961;-65
2021/01/27 20:09:33;;;;;;;15.63;7.37;;;;;;;0.67;69.09;99434.52;3614469;80;29978;-63
2021/01/27 20:14:40;;;;;;;17.62;8.93;;;;;;;0.68;69.54;99436.65;3613886;79;28878;-63
2021/01/27 20:19:44;;;;;;;13.95;7.65;;;;;;;0.60;68.36;99437.56;3603015;80;30038;-65
2021/01/27 20:24:48;;;;;;;11.17;8.60;;;;;;;0.62;69.59;99438.67;3608766;80;27276;-66
2021/01/27 20:29:56;;;;;;;12.47;8.23;;;;;;;0.66;69.37;99436.02;3612624;80;26230;-65
2021/01/27 20:35:02;;;;;;;14.30;8.98;;;;;;;0.64;70.25;99434.88;3603986;80;26026;-65
2021/01/27 20:40:07;;;;;;;18.63;8.97;;;;;;;0.61;69.12;99438.38;3606351;80;26152;-66
2021/01/27 20:45:16;;;;;;;17.00;9.58;;;;;;;0.56;69.72;99435.47;3586961;80;28885;-67
2021/01/27 20:50:22;;;;;;;22.50;13.57;;;;;;;0.49;70.99;99435.85;3603106;80;26520;-64
2021/01/27 20:55:27;;;;;;;29.57;12.07;;;;;;;0.45;70.53;99428.02;3601830;80;30176;-65
2021/01/27 21:00:34;;;;;;;28.60;13.05;;;;;;;0.41;70.63;99424.93;3605652;80;30080;-68
2021/01/27 21:05:38;;;;;;;19.40;9.68;;;;;;;0.39;70.44;99428.72;3604674;80;30378;-67
2021/01/27 21:10:43;;;;;;;15.03;7.78;;;;;;;0.33;69.18;99434.98;3605923;80;26379;-66
2021/01/27 21:15:48;;;;;;;17.10;7.67;;;;;;;0.31;68.48;99440.08;3544419;82;27866;-65
2021/01/27 21:20:55;;;;;;;10.95;6.67;;;;;;;0.27;70.05;99440.14;3485074;83;26317;-64
2021/01/27 21:25:58;;;;;;;12.30;7.42;;;;;;;0.22;70.87;99447.21;3500025;81;30662;-63
2021/01/27 21:31:01;;;;;;;11.08;5.72;;;;;;;0.21;70.00;99444.77;3514450;81;29865;-63
2021/01/27 21:36:04;;;;;;;12.55;7.55;;;;;;;0.17;71.03;99441.67;3531753;80;30224;-63
2021/01/27 21:41:07;;;;;;;10.35;6.30;;;;;;;0.15;70.84;99447.58;3550877;80;29286;-64
2021/01/27 21:46:12;;;;;;;11.10;6.60;;;;;;;0.17;69.42;99454.78;3538880;80;29815;-66
2021/01/27 21:51:19;;;;;;;5.25;3.58;;;;;;;0.22;69.37;99457.70;3516318;82;30743;-66
2021/01/27 21:56:23;;;;;;;11.28;4.92;;;;;;;0.19;69.57;99455.91;3536188;80;30140;-68
2021/01/27 22:01:30;;;;;;;8.03;4.78;;;;;;;0.21;68.79;99456.56;3528396;82;30672;-63
2021/01/27 22:06:32;;;;;;;11.03;6.42;;;;;;;0.20;69.09;99459.67;3532781;82;30123;-68
2021/01/27 22:11:35;;;;;;;6.22;3.52;;;;;;;0.16;69.67;99456.27;3533309;82;30638;-65
2021/01/27 22:16:38;;;;;;;7.35;4.00;;;;;;;0.17;66.53;99451.34;3491360;82;30507;-64
2021/01/27 22:21:42;;;;;;;6.30;4.30;;;;;;;0.26;68.87;99456.36;3470463;83;30111;-67
2021/01/27 22:26:44;;;;;;;5.30;4.00;;;;;;;0.28;67.29;99463.55;3538328;82;26752;-68
2021/01/27 22:31:48;;;;;;;8.90;4.95;;;;;;;0.28;66.55;99466.18;3543358;82;27389;-68
2021/01/27 22:36:52;;;;;;;8.20;4.40;;;;;;;0.31;67.73;99460.55;3547604;82;30315;-68
2021/01/27 22:41:56;;;;;;;6.03;3.67;;;;;;;0.33;67.11;99461.69;3541831;82;26668;-68
2021/01/27 22:47:00;;;;;;;9.13;5.23;;;;;;;0.30;67.23;99453.72;3542171;82;25974;-68
2021/01/27 22:52:05;;;;;;;7.73;4.37;;;;;;;0.32;68.71;99444.33;3536702;82;26471;-67
2021/01/27 22:57:11;;;;;;;6.42;4.22;;;;;;;0.30;66.46;99440.61;3521274;82;26449;-65
2021/01/27 23:02:15;;;;;;;7.25;4.22;;;;;;;0.35;68.14;99429.56;3534965;82;28394;-65
2021/01/27 23:07:20;;;;;;;7.12;3.77;;;;;;;0.28;70.69;99428.17;3539037;82;30560;-68
2021/01/27 23:12:24;;;;;;;8.65;4.03;;;;;;;0.28;69.70;99424.23;3547775;82;29257;-66
2021/01/27 23:17:31;;;;;;;4.25;3.42;;;;;;;0.20;70.22;99428.22;3547199;81;25743;-64
2021/01/27 23:22:34;;;;;;;18.45;5.08;;;;;;;0.21;69.03;99427.23;3554472;82;29127;-66
2021/01/27 23:27:38;;;;;;;8.20;3.98;;;;;;;0.20;69.70;99424.29;3550757;82;29264;-65
2021/01/27 23:32:41;;;;;;;4.37;3.50;;;;;;;0.14;70.92;99424.17;3550062;81;28180;-68
2021/01/27 23:37:44;;;;;;;10.53;5.22;;;;;;;0.09;71.41;99417.32;3552666;81;31309;-64
2021/01/27 23:42:48;;;;;;;4.67;3.40;;;;;;;0.09;71.51;99415.52;3554211;81;25886;-64
2021/01/27 23:47:52;;;;;;;10.90;4.07;;;;;;;0.03;71.74;99401.80;3552320;82;27569;-65
2021/01/27 23:52:57;;;;;;;12.43;5.25;;;;;;;0.06;71.79;99390.97;3563058;81;28668;-66
2021/01/27 23:58:09;;;;;;;9.23;5.67;;;;;;;0.04;72.74;99387.70;3488426;82;34836;-63
